sensor_id;sensor_type;location;lat;lon;timestamp;temperature;humidity
40123;DHT22;25832;45.490;4.912;2023-01-09T00:01:37;8.90;99.90
40123;DHT22;25832;45.490;4.912;2023-01-09T00:04:03;9.20;99.90
40123;DHT22;25832;45.490;4.912;2023-01-09T00:06:29;9.30;99.90
40123;DHT22;25832;45.490;4.912;2023-01-09T00:08:55;9.30;99.90
40123;DHT22;25832;45.490;4.912;2023-01-09T00:11:22;9.40;99.90
40123;DHT22;25832;45.490;4.912;2023-01-09T00:13:47;9.40;99.90
40123;DHT22;25832;45.490;4.912;2023-01-09T00:16:14;9.40;99.90
40123;DHT22;25832;45.490;4.912;2023-01-09T00:18:40;9.40;99.90
40123;DHT22;25832;45.490;4.912;2023-01-09T00:21:07;9.40;99.90
40123;DHT22;25832;45.490;4.912;2023-01-09T00:23:34;9.40;99.90
40123;DHT22;25832;45.490;4.912;2023-01-09T00:28:33;9.40;99.90
40123;DHT22;25832;45.490;4.912;2023-01-09T00:31:00;9.40;99.90
40123;DHT22;25832;45.490;4.912;2023-01-09T00:33:32;9.50;99.90
40123;DHT22;25832;45.490;4.912;2023-01-09T00:35:59;9.50;99.90
40123;DHT22;25832;45.490;4.912;2023-01-09T00:38:25;9.50;99.90
40123;DHT22;25832;45.490;4.912;2023-01-09T00:40:51;9.30;99.90
40123;DHT22;25832;45.490;4.912;2023-01-09T00:43:19;9.20;99.90
40123;DHT22;25832;45.490;4.912;2023-01-09T00:45:45;9.10;99.90
40123;DHT22;25832;45.490;4.912;2023-01-09T00:48:14;9.10;99.90
40123;DHT22;25832;45.490;4.912;2023-01-09T00:50:42;9.10;99.90
40123;DHT22;25832;45.490;4.912;2023-01-09T00:53:14;9.00;99.90
40123;DHT22;25832;45.490;4.912;2023-01-09T00:55:41;9.00;99.90
40123;DHT22;25832;45.490;4.912;2023-01-09T00:58:08;9.00;99.90
40123;DHT22;25832;45.490;4.912;2023-01-09T01:00:33;9.00;99.90
40123;DHT22;25832;45.490;4.912;2023-01-09T01:02:59;9.10;99.90
40123;DHT22;25832;45.490;4.912;2023-01-09T01:05:25;9.00;99.90
40123;DHT22;25832;45.490;4.912;2023-01-09T01:08:15;9.00;99.90
40123;DHT22;25832;45.490;4.912;2023-01-09T01:10:42;8.90;99.90
40123;DHT22;25832;45.490;4.912;2023-01-09T01:13:08;8.80;99.90
40123;DHT22;25832;45.490;4.912;2023-01-09T01:15:36;8.80;99.90
40123;DHT22;25832;45.490;4.912;2023-01-09T01:18:02;8.70;99.90
40123;DHT22;25832;45.490;4.912;2023-01-09T01:20:28;8.70;99.90
40123;DHT22;25832;45.490;4.912;2023-01-09T01:22:54;8.60;99.90
40123;DHT22;25832;45.490;4.912;2023-01-09T01:25:19;8.60;99.90
40123;DHT22;25832;45.490;4.912;2023-01-09T01:27:45;8.50;99.90
40123;DHT22;25832;45.490;4.912;2023-01-09T01:30:12;8.50;99.90
40123;DHT22;25832;45.490;4.912;2023-01-09T01:32:39;8.50;99.90
40123;DHT22;25832;45.490;4.912;2023-01-09T01:35:06;8.60;99.90
40123;DHT22;25832;45.490;4.912;2023-01-09T01:37:33;8.70;99.90
40123;DHT22;25832;45.490;4.912;2023-01-09T01:39:59;8.70;99.90
40123;DHT22;25832;45.490;4.912;2023-01-09T01:42:25;8.70;99.90
40123;DHT22;25832;45.490;4.912;2023-01-09T01:47:33;8.70;99.90
40123;DHT22;25832;45.490;4.912;2023-01-09T01:50:06;8.80;99.90
40123;DHT22;25832;45.490;4.912;2023-01-09T01:52:33;8.80;99.90
40123;DHT22;25832;45.490;4.912;2023-01-09T01:55:00;8.80;99.90
40123;DHT22;25832;45.490;4.912;2023-01-09T01:57:27;8.80;99.90
40123;DHT22;25832;45.490;4.912;2023-01-09T01:59:56;8.80;99.90
40123;DHT22;25832;45.490;4.912;2023-01-09T02:02:26;8.80;99.90
40123;DHT22;25832;45.490;4.912;2023-01-09T02:04:53;8.70;99.90
40123;DHT22;25832;45.490;4.912;2023-01-09T02:07:19;8.70;99.90
40123;DHT22;25832;45.490;4.912;2023-01-09T02:09:45;8.60;99.90
40123;DHT22;25832;45.490;4.912;2023-01-09T02:12:26;8.50;99.90
40123;DHT22;25832;45.490;4.912;2023-01-09T02:14:56;8.50;99.90
40123;DHT22;25832;45.490;4.912;2023-01-09T02:20:56;8.40;99.90
40123;DHT22;25832;45.490;4.912;2023-01-09T02:23:13;8.40;99.90
40123;DHT22;25832;45.490;4.912;2023-01-09T02:39:43;8.00;99.90
40123;DHT22;25832;45.490;4.912;2023-01-09T02:44:40;8.00;99.90
40123;DHT22;25832;45.490;4.912;2023-01-09T02:49:52;7.80;99.90
40123;DHT22;25832;45.490;4.912;2023-01-09T02:58:29;7.70;99.90
40123;DHT22;25832;45.490;4.912;2023-01-09T03:03:47;7.70;99.90
40123;DHT22;25832;45.490;4.912;2023-01-09T03:06:19;7.80;99.90
40123;DHT22;25832;45.490;4.912;2023-01-09T03:08:51;7.70;99.90
40123;DHT22;25832;45.490;4.912;2023-01-09T03:11:17;7.80;99.90
40123;DHT22;25832;45.490;4.912;2023-01-09T03:13:46;7.80;99.90
40123;DHT22;25832;45.490;4.912;2023-01-09T03:16:17;7.80;99.90
40123;DHT22;25832;45.490;4.912;2023-01-09T03:18:48;7.80;99.90
40123;DHT22;25832;45.490;4.912;2023-01-09T03:21:15;7.80;99.90
40123;DHT22;25832;45.490;4.912;2023-01-09T03:23:52;7.70;99.90
40123;DHT22;25832;45.490;4.912;2023-01-09T03:26:18;7.60;99.90
40123;DHT22;25832;45.490;4.912;2023-01-09T03:28:45;7.60;99.90
40123;DHT22;25832;45.490;4.912;2023-01-09T03:31:11;7.50;99.90
40123;DHT22;25832;45.490;4.912;2023-01-09T03:33:37;7.50;99.90
40123;DHT22;25832;45.490;4.912;2023-01-09T03:36:03;7.40;99.90
40123;DHT22;25832;45.490;4.912;2023-01-09T03:38:29;7.30;99.90
40123;DHT22;25832;45.490;4.912;2023-01-09T03:40:55;7.30;99.90
40123;DHT22;25832;45.490;4.912;2023-01-09T03:43:20;7.20;99.90
40123;DHT22;25832;45.490;4.912;2023-01-09T03:45:46;7.10;99.90
40123;DHT22;25832;45.490;4.912;2023-01-09T03:48:12;7.10;99.90
40123;DHT22;25832;45.490;4.912;2023-01-09T03:50:37;7.10;99.90
40123;DHT22;25832;45.490;4.912;2023-01-09T03:53:03;7.00;99.90
40123;DHT22;25832;45.490;4.912;2023-01-09T03:55:29;6.90;99.90
40123;DHT22;25832;45.490;4.912;2023-01-09T03:57:55;6.70;99.90
40123;DHT22;25832;45.490;4.912;2023-01-09T04:00:21;6.50;99.90
40123;DHT22;25832;45.490;4.912;2023-01-09T04:02:46;6.20;99.90
40123;DHT22;25832;45.490;4.912;2023-01-09T04:05:12;5.90;99.90
40123;DHT22;25832;45.490;4.912;2023-01-09T04:07:38;5.60;99.90
40123;DHT22;25832;45.490;4.912;2023-01-09T04:10:04;5.50;99.90
40123;DHT22;25832;45.490;4.912;2023-01-09T04:12:30;5.50;99.90
40123;DHT22;25832;45.490;4.912;2023-01-09T04:14:55;5.50;99.90
40123;DHT22;25832;45.490;4.912;2023-01-09T04:17:21;5.50;99.90
40123;DHT22;25832;45.490;4.912;2023-01-09T04:19:47;5.60;99.90
40123;DHT22;25832;45.490;4.912;2023-01-09T04:22:12;5.60;99.90
40123;DHT22;25832;45.490;4.912;2023-01-09T04:24:38;5.60;99.90
40123;DHT22;25832;45.490;4.912;2023-01-09T04:27:04;5.70;99.90
40123;DHT22;25832;45.490;4.912;2023-01-09T04:29:29;5.80;99.90
40123;DHT22;25832;45.490;4.912;2023-01-09T04:31:55;5.70;99.90
40123;DHT22;25832;45.490;4.912;2023-01-09T04:34:20;5.60;99.90
40123;DHT22;25832;45.490;4.912;2023-01-09T04:36:53;5.60;99.90
40123;DHT22;25832;45.490;4.912;2023-01-09T04:39:21;5.60;99.90
40123;DHT22;25832;45.490;4.912;2023-01-09T04:41:47;5.50;99.90
40123;DHT22;25832;45.490;4.912;2023-01-09T04:44:17;5.50;99.90
40123;DHT22;25832;45.490;4.912;2023-01-09T04:46:43;5.50;99.90
40123;DHT22;25832;45.490;4.912;2023-01-09T04:49:08;5.50;99.90
40123;DHT22;25832;45.490;4.912;2023-01-09T04:51:34;5.60;99.90
40123;DHT22;25832;45.490;4.912;2023-01-09T04:54:00;5.50;99.90
40123;DHT22;25832;45.490;4.912;2023-01-09T04:56:26;5.60;99.90
40123;DHT22;25832;45.490;4.912;2023-01-09T04:58:51;5.60;99.90
40123;DHT22;25832;45.490;4.912;2023-01-09T05:01:17;5.60;99.90
40123;DHT22;25832;45.490;4.912;2023-01-09T05:03:43;5.70;99.90
40123;DHT22;25832;45.490;4.912;2023-01-09T05:06:08;5.70;99.90
40123;DHT22;25832;45.490;4.912;2023-01-09T05:08:34;5.70;99.90
40123;DHT22;25832;45.490;4.912;2023-01-09T05:11:00;5.80;99.90
40123;DHT22;25832;45.490;4.912;2023-01-09T05:13:26;5.80;99.90
40123;DHT22;25832;45.490;4.912;2023-01-09T05:15:51;5.90;99.90
40123;DHT22;25832;45.490;4.912;2023-01-09T05:18:17;5.90;99.90
40123;DHT22;25832;45.490;4.912;2023-01-09T05:20:43;5.80;99.90
40123;DHT22;25832;45.490;4.912;2023-01-09T05:23:08;5.80;99.90
40123;DHT22;25832;45.490;4.912;2023-01-09T05:25:34;5.80;99.90
40123;DHT22;25832;45.490;4.912;2023-01-09T05:27:59;5.70;99.90
40123;DHT22;25832;45.490;4.912;2023-01-09T05:30:26;5.70;99.90
40123;DHT22;25832;45.490;4.912;2023-01-09T05:32:52;5.70;99.90
40123;DHT22;25832;45.490;4.912;2023-01-09T05:35:18;5.60;99.90
40123;DHT22;25832;45.490;4.912;2023-01-09T05:37:45;5.50;99.90
40123;DHT22;25832;45.490;4.912;2023-01-09T05:40:11;5.50;99.90
40123;DHT22;25832;45.490;4.912;2023-01-09T05:42:37;5.40;99.90
40123;DHT22;25832;45.490;4.912;2023-01-09T05:45:03;5.30;99.90
40123;DHT22;25832;45.490;4.912;2023-01-09T05:47:29;5.30;99.90
40123;DHT22;25832;45.490;4.912;2023-01-09T05:49:54;5.30;99.90
40123;DHT22;25832;45.490;4.912;2023-01-09T05:52:21;5.30;99.90
40123;DHT22;25832;45.490;4.912;2023-01-09T05:54:47;5.30;99.90
40123;DHT22;25832;45.490;4.912;2023-01-09T05:57:13;5.40;99.90
40123;DHT22;25832;45.490;4.912;2023-01-09T05:59:38;5.40;99.90
40123;DHT22;25832;45.490;4.912;2023-01-09T06:02:04;5.40;99.90
40123;DHT22;25832;45.490;4.912;2023-01-09T06:04:30;5.40;99.90
40123;DHT22;25832;45.490;4.912;2023-01-09T06:06:56;5.40;99.90
40123;DHT22;25832;45.490;4.912;2023-01-09T06:09:21;5.50;99.90
40123;DHT22;25832;45.490;4.912;2023-01-09T06:11:47;5.40;99.90
40123;DHT22;25832;45.490;4.912;2023-01-09T06:14:13;5.40;99.90
40123;DHT22;25832;45.490;4.912;2023-01-09T06:16:38;5.40;99.90
40123;DHT22;25832;45.490;4.912;2023-01-09T06:19:04;5.30;99.90
40123;DHT22;25832;45.490;4.912;2023-01-09T06:21:31;5.40;99.90
40123;DHT22;25832;45.490;4.912;2023-01-09T06:23:57;5.40;99.90
40123;DHT22;25832;45.490;4.912;2023-01-09T06:26:24;5.40;99.90
40123;DHT22;25832;45.490;4.912;2023-01-09T06:28:50;5.30;99.90
40123;DHT22;25832;45.490;4.912;2023-01-09T06:31:16;5.30;99.90
40123;DHT22;25832;45.490;4.912;2023-01-09T06:33:42;5.20;99.90
40123;DHT22;25832;45.490;4.912;2023-01-09T06:36:08;5.10;99.90
40123;DHT22;25832;45.490;4.912;2023-01-09T06:38:34;5.00;99.90
40123;DHT22;25832;45.490;4.912;2023-01-09T06:40:59;5.00;99.90
40123;DHT22;25832;45.490;4.912;2023-01-09T06:43:25;5.00;99.90
40123;DHT22;25832;45.490;4.912;2023-01-09T06:45:51;5.00;99.90
40123;DHT22;25832;45.490;4.912;2023-01-09T06:48:16;5.00;99.90
40123;DHT22;25832;45.490;4.912;2023-01-09T06:50:42;5.00;99.90
40123;DHT22;25832;45.490;4.912;2023-01-09T06:53:08;5.10;99.90
40123;DHT22;25832;45.490;4.912;2023-01-09T06:55:35;5.10;99.90
40123;DHT22;25832;45.490;4.912;2023-01-09T06:58:00;5.10;99.90
40123;DHT22;25832;45.490;4.912;2023-01-09T07:00:26;5.10;99.90
40123;DHT22;25832;45.490;4.912;2023-01-09T07:02:52;5.10;99.90
40123;DHT22;25832;45.490;4.912;2023-01-09T07:05:18;5.20;99.90
40123;DHT22;25832;45.490;4.912;2023-01-09T07:07:43;5.20;99.90
40123;DHT22;25832;45.490;4.912;2023-01-09T07:10:09;5.20;99.90
40123;DHT22;25832;45.490;4.912;2023-01-09T07:12:35;5.30;99.90
40123;DHT22;25832;45.490;4.912;2023-01-09T07:15:01;5.40;99.90
40123;DHT22;25832;45.490;4.912;2023-01-09T07:17:27;5.50;99.90
40123;DHT22;25832;45.490;4.912;2023-01-09T07:19:52;5.50;99.90
40123;DHT22;25832;45.490;4.912;2023-01-09T07:22:18;5.70;99.90
40123;DHT22;25832;45.490;4.912;2023-01-09T07:24:43;5.70;99.90
40123;DHT22;25832;45.490;4.912;2023-01-09T07:27:10;5.80;99.90
40123;DHT22;25832;45.490;4.912;2023-01-09T07:29:36;5.90;99.90
40123;DHT22;25832;45.490;4.912;2023-01-09T07:32:02;6.00;99.90
40123;DHT22;25832;45.490;4.912;2023-01-09T07:34:28;6.10;99.90
40123;DHT22;25832;45.490;4.912;2023-01-09T07:36:53;6.20;99.90
40123;DHT22;25832;45.490;4.912;2023-01-09T07:39:19;6.20;99.90
40123;DHT22;25832;45.490;4.912;2023-01-09T07:41:45;6.30;99.90
40123;DHT22;25832;45.490;4.912;2023-01-09T07:44:10;6.40;99.90
40123;DHT22;25832;45.490;4.912;2023-01-09T07:46:36;6.50;99.90
40123;DHT22;25832;45.490;4.912;2023-01-09T07:49:02;6.60;99.90
40123;DHT22;25832;45.490;4.912;2023-01-09T07:51:28;6.70;99.90
40123;DHT22;25832;45.490;4.912;2023-01-09T07:53:54;6.80;99.90
40123;DHT22;25832;45.490;4.912;2023-01-09T07:56:19;6.90;99.90
40123;DHT22;25832;45.490;4.912;2023-01-09T07:58:45;6.90;99.90
40123;DHT22;25832;45.490;4.912;2023-01-09T08:01:11;7.00;99.90
40123;DHT22;25832;45.490;4.912;2023-01-09T08:03:37;7.00;99.90
40123;DHT22;25832;45.490;4.912;2023-01-09T08:06:03;7.10;99.90
40123;DHT22;25832;45.490;4.912;2023-01-09T08:08:29;7.30;99.90
40123;DHT22;25832;45.490;4.912;2023-01-09T08:10:55;7.30;99.90
40123;DHT22;25832;45.490;4.912;2023-01-09T08:13:20;7.30;99.90
40123;DHT22;25832;45.490;4.912;2023-01-09T08:15:46;7.20;99.90
40123;DHT22;25832;45.490;4.912;2023-01-09T08:18:12;7.20;99.90
40123;DHT22;25832;45.490;4.912;2023-01-09T08:20:38;7.20;99.90
40123;DHT22;25832;45.490;4.912;2023-01-09T08:23:03;7.20;99.90
40123;DHT22;25832;45.490;4.912;2023-01-09T08:25:29;7.10;99.90
40123;DHT22;25832;45.490;4.912;2023-01-09T08:27:54;7.10;99.90
40123;DHT22;25832;45.490;4.912;2023-01-09T08:30:20;7.10;99.90
40123;DHT22;25832;45.490;4.912;2023-01-09T08:32:50;7.00;99.90
40123;DHT22;25832;45.490;4.912;2023-01-09T08:35:16;7.00;99.90
40123;DHT22;25832;45.490;4.912;2023-01-09T08:37:43;7.00;99.90
40123;DHT22;25832;45.490;4.912;2023-01-09T08:40:11;6.90;99.90
40123;DHT22;25832;45.490;4.912;2023-01-09T08:42:36;6.90;99.90
40123;DHT22;25832;45.490;4.912;2023-01-09T08:45:21;7.00;99.90
40123;DHT22;25832;45.490;4.912;2023-01-09T08:48:05;6.90;99.90
40123;DHT22;25832;45.490;4.912;2023-01-09T08:50:31;7.00;99.90
40123;DHT22;25832;45.490;4.912;2023-01-09T08:52:57;7.00;99.90
40123;DHT22;25832;45.490;4.912;2023-01-09T08:55:23;7.00;99.90
40123;DHT22;25832;45.490;4.912;2023-01-09T08:57:49;7.00;99.90
40123;DHT22;25832;45.490;4.912;2023-01-09T09:00:17;7.00;99.90
40123;DHT22;25832;45.490;4.912;2023-01-09T09:02:43;7.00;99.90
40123;DHT22;25832;45.490;4.912;2023-01-09T09:05:09;6.90;99.90
40123;DHT22;25832;45.490;4.912;2023-01-09T09:07:35;6.90;99.90
40123;DHT22;25832;45.490;4.912;2023-01-09T09:10:01;6.90;99.90
40123;DHT22;25832;45.490;4.912;2023-01-09T09:12:27;6.90;99.90
40123;DHT22;25832;45.490;4.912;2023-01-09T09:14:52;7.00;99.90
40123;DHT22;25832;45.490;4.912;2023-01-09T09:17:38;7.10;99.90
40123;DHT22;25832;45.490;4.912;2023-01-09T09:20:05;7.20;99.90
40123;DHT22;25832;45.490;4.912;2023-01-09T09:22:31;7.20;99.90
40123;DHT22;25832;45.490;4.912;2023-01-09T09:24:57;7.40;99.90
40123;DHT22;25832;45.490;4.912;2023-01-09T09:27:22;7.50;99.90
40123;DHT22;25832;45.490;4.912;2023-01-09T09:29:48;7.50;99.90
40123;DHT22;25832;45.490;4.912;2023-01-09T09:32:14;7.70;99.90
40123;DHT22;25832;45.490;4.912;2023-01-09T09:34:39;7.80;99.90
40123;DHT22;25832;45.490;4.912;2023-01-09T09:37:05;7.90;99.90
40123;DHT22;25832;45.490;4.912;2023-01-09T09:39:31;8.10;99.90
40123;DHT22;25832;45.490;4.912;2023-01-09T09:42:09;8.30;99.90
40123;DHT22;25832;45.490;4.912;2023-01-09T09:47:51;8.60;99.90
40123;DHT22;25832;45.490;4.912;2023-01-09T09:55:30;9.10;99.90
40123;DHT22;25832;45.490;4.912;2023-01-09T09:58:03;9.20;99.90
40123;DHT22;25832;45.490;4.912;2023-01-09T10:00:31;9.20;99.90
40123;DHT22;25832;45.490;4.912;2023-01-09T10:06:12;9.20;99.90
40123;DHT22;25832;45.490;4.912;2023-01-09T10:11:26;9.20;99.90
40123;DHT22;25832;45.490;4.912;2023-01-09T10:13:55;9.20;99.90
40123;DHT22;25832;45.490;4.912;2023-01-09T10:19:36;9.20;99.90
40123;DHT22;25832;45.490;4.912;2023-01-09T10:35:50;9.10;99.90
40123;DHT22;25832;45.490;4.912;2023-01-09T10:38:24;9.00;99.90
40123;DHT22;25832;45.490;4.912;2023-01-09T10:41:35;9.00;99.90
40123;DHT22;25832;45.490;4.912;2023-01-09T10:44:13;9.00;99.90
40123;DHT22;25832;45.490;4.912;2023-01-09T10:46:48;9.00;99.90
40123;DHT22;25832;45.490;4.912;2023-01-09T10:49:18;9.10;99.90
40123;DHT22;25832;45.490;4.912;2023-01-09T10:52:03;9.10;99.90
40123;DHT22;25832;45.490;4.912;2023-01-09T10:54:48;9.10;99.90
40123;DHT22;25832;45.490;4.912;2023-01-09T10:59:55;9.20;99.90
40123;DHT22;25832;45.490;4.912;2023-01-09T11:02:30;9.20;99.90
40123;DHT22;25832;45.490;4.912;2023-01-09T11:04:56;9.30;99.90
40123;DHT22;25832;45.490;4.912;2023-01-09T11:07:36;9.30;99.90
40123;DHT22;25832;45.490;4.912;2023-01-09T11:10:09;9.30;99.90
40123;DHT22;25832;45.490;4.912;2023-01-09T11:12:37;9.30;99.90
40123;DHT22;25832;45.490;4.912;2023-01-09T11:17:45;9.30;99.90
40123;DHT22;25832;45.490;4.912;2023-01-09T11:20:27;9.40;99.90
40123;DHT22;25832;45.490;4.912;2023-01-09T11:22:56;9.40;99.90
40123;DHT22;25832;45.490;4.912;2023-01-09T11:25:27;9.40;99.90
40123;DHT22;25832;45.490;4.912;2023-01-09T11:30:29;9.40;99.90
40123;DHT22;25832;45.490;4.912;2023-01-09T11:32:56;9.40;99.90
40123;DHT22;25832;45.490;4.912;2023-01-09T11:35:32;9.40;99.80
40123;DHT22;25832;45.490;4.912;2023-01-09T11:38:14;9.50;99.90
40123;DHT22;25832;45.490;4.912;2023-01-09T11:40:50;9.60;99.90
40123;DHT22;25832;45.490;4.912;2023-01-09T11:43:34;9.70;99.90
40123;DHT22;25832;45.490;4.912;2023-01-09T11:46:06;9.90;98.60
40123;DHT22;25832;45.490;4.912;2023-01-09T11:51:00;10.00;98.90
40123;DHT22;25832;45.490;4.912;2023-01-09T11:53:26;10.10;98.40
40123;DHT22;25832;45.490;4.912;2023-01-09T11:56:01;10.10;97.80
40123;DHT22;25832;45.490;4.912;2023-01-09T11:58:30;10.10;98.30
40123;DHT22;25832;45.490;4.912;2023-01-09T12:09:58;10.30;98.10
40123;DHT22;25832;45.490;4.912;2023-01-09T12:29:24;10.50;97.10
40123;DHT22;25832;45.490;4.912;2023-01-09T12:43:03;10.00;98.30
40123;DHT22;25832;45.490;4.912;2023-01-09T12:49:03;9.90;99.00
40123;DHT22;25832;45.490;4.912;2023-01-09T12:51:32;9.90;98.70
40123;DHT22;25832;45.490;4.912;2023-01-09T12:54:04;9.80;99.60
40123;DHT22;25832;45.490;4.912;2023-01-09T12:56:48;9.40;99.40
40123;DHT22;25832;45.490;4.912;2023-01-09T12:59:35;9.00;99.70
40123;DHT22;25832;45.490;4.912;2023-01-09T13:02:22;8.80;99.50
40123;DHT22;25832;45.490;4.912;2023-01-09T13:07:25;8.50;99.90
40123;DHT22;25832;45.490;4.912;2023-01-09T13:10:29;8.40;99.90
40123;DHT22;25832;45.490;4.912;2023-01-09T13:12:48;8.40;99.90
40123;DHT22;25832;45.490;4.912;2023-01-09T13:18:04;8.40;99.90
40123;DHT22;25832;45.490;4.912;2023-01-09T13:20:37;8.20;99.90
40123;DHT22;25832;45.490;4.912;2023-01-09T13:23:14;8.20;99.90
40123;DHT22;25832;45.490;4.912;2023-01-09T13:25:48;8.10;99.90
40123;DHT22;25832;45.490;4.912;2023-01-09T13:28:24;8.10;99.90
40123;DHT22;25832;45.490;4.912;2023-01-09T13:33:49;8.20;99.90
40123;DHT22;25832;45.490;4.912;2023-01-09T13:36:29;8.20;99.90
40123;DHT22;25832;45.490;4.912;2023-01-09T13:38:57;8.30;99.90
40123;DHT22;25832;45.490;4.912;2023-01-09T13:41:24;8.30;99.90
40123;DHT22;25832;45.490;4.912;2023-01-09T13:44:23;8.40;99.90
40123;DHT22;25832;45.490;4.912;2023-01-09T13:46:54;8.50;99.90
40123;DHT22;25832;45.490;4.912;2023-01-09T13:59:45;8.00;99.90
40123;DHT22;25832;45.490;4.912;2023-01-09T14:05:09;7.50;99.90
40123;DHT22;25832;45.490;4.912;2023-01-09T14:07:36;7.40;99.90
40123;DHT22;25832;45.490;4.912;2023-01-09T14:10:05;7.30;99.90
40123;DHT22;25832;45.490;4.912;2023-01-09T14:12:38;7.20;99.90
40123;DHT22;25832;45.490;4.912;2023-01-09T14:15:06;7.30;99.90
40123;DHT22;25832;45.490;4.912;2023-01-09T14:17:47;7.30;99.90
40123;DHT22;25832;45.490;4.912;2023-01-09T14:20:29;7.40;99.90
40123;DHT22;25832;45.490;4.912;2023-01-09T14:22:57;7.40;99.90
40123;DHT22;25832;45.490;4.912;2023-01-09T14:25:27;7.40;99.90
40123;DHT22;25832;45.490;4.912;2023-01-09T14:38:13;7.80;99.90
40123;DHT22;25832;45.490;4.912;2023-01-09T14:46:24;7.80;98.40
40123;DHT22;25832;45.490;4.912;2023-01-09T14:51:26;7.60;98.90
40123;DHT22;25832;45.490;4.912;2023-01-09T14:53:54;7.60;99.90
40123;DHT22;25832;45.490;4.912;2023-01-09T14:56:26;7.40;99.90
40123;DHT22;25832;45.490;4.912;2023-01-09T14:59:10;7.20;99.90
40123;DHT22;25832;45.490;4.912;2023-01-09T15:01:39;7.00;99.90
40123;DHT22;25832;45.490;4.912;2023-01-09T15:04:32;6.80;99.90
40123;DHT22;25832;45.490;4.912;2023-01-09T15:07:04;6.50;99.90
40123;DHT22;25832;45.490;4.912;2023-01-09T15:09:43;6.40;99.90
40123;DHT22;25832;45.490;4.912;2023-01-09T15:12:15;6.20;99.90
40123;DHT22;25832;45.490;4.912;2023-01-09T15:14:43;6.10;99.90
40123;DHT22;25832;45.490;4.912;2023-01-09T15:17:21;6.00;99.90
40123;DHT22;25832;45.490;4.912;2023-01-09T15:19:47;6.00;99.90
40123;DHT22;25832;45.490;4.912;2023-01-09T15:24:49;6.00;99.90
40123;DHT22;25832;45.490;4.912;2023-01-09T15:27:16;6.00;99.90
40123;DHT22;25832;45.490;4.912;2023-01-09T15:29:49;6.00;99.90
40123;DHT22;25832;45.490;4.912;2023-01-09T15:32:24;6.10;99.90
40123;DHT22;25832;45.490;4.912;2023-01-09T15:34:52;6.20;99.90
40123;DHT22;25832;45.490;4.912;2023-01-09T15:37:32;6.30;99.90
40123;DHT22;25832;45.490;4.912;2023-01-09T15:40:01;6.30;99.90
40123;DHT22;25832;45.490;4.912;2023-01-09T15:42:35;6.40;99.90
40123;DHT22;25832;45.490;4.912;2023-01-09T15:47:54;6.40;99.90
40123;DHT22;25832;45.490;4.912;2023-01-09T15:50:38;6.40;99.90
40123;DHT22;25832;45.490;4.912;2023-01-09T15:53:04;6.50;99.90
40123;DHT22;25832;45.490;4.912;2023-01-09T15:55:33;6.50;99.90
40123;DHT22;25832;45.490;4.912;2023-01-09T15:58:01;6.50;99.90
40123;DHT22;25832;45.490;4.912;2023-01-09T16:00:32;6.50;99.90
40123;DHT22;25832;45.490;4.912;2023-01-09T16:03:00;6.50;99.90
40123;DHT22;25832;45.490;4.912;2023-01-09T16:05:43;6.50;99.90
40123;DHT22;25832;45.490;4.912;2023-01-09T16:08:33;6.50;99.90
40123;DHT22;25832;45.490;4.912;2023-01-09T16:11:01;6.50;99.90
40123;DHT22;25832;45.490;4.912;2023-01-09T16:13:29;6.40;99.90
40123;DHT22;25832;45.490;4.912;2023-01-09T16:15:55;6.30;99.90
40123;DHT22;25832;45.490;4.912;2023-01-09T16:18:29;6.30;99.90
40123;DHT22;25832;45.490;4.912;2023-01-09T16:23:33;6.10;99.90
40123;DHT22;25832;45.490;4.912;2023-01-09T16:26:13;6.10;99.90
40123;DHT22;25832;45.490;4.912;2023-01-09T16:28:44;6.10;99.90
40123;DHT22;25832;45.490;4.912;2023-01-09T16:31:29;6.10;99.90
40123;DHT22;25832;45.490;4.912;2023-01-09T16:34:01;6.20;99.90
40123;DHT22;25832;45.490;4.912;2023-01-09T16:36:29;6.10;99.90
40123;DHT22;25832;45.490;4.912;2023-01-09T16:38:55;6.00;99.90
40123;DHT22;25832;45.490;4.912;2023-01-09T16:41:21;6.00;99.90
40123;DHT22;25832;45.490;4.912;2023-01-09T16:44:07;5.90;99.90
40123;DHT22;25832;45.490;4.912;2023-01-09T16:46:39;5.80;99.90
40123;DHT22;25832;45.490;4.912;2023-01-09T16:49:26;5.90;99.90
40123;DHT22;25832;45.490;4.912;2023-01-09T16:51:53;6.00;99.90
40123;DHT22;25832;45.490;4.912;2023-01-09T16:54:19;6.00;99.90
40123;DHT22;25832;45.490;4.912;2023-01-09T16:56:47;6.10;99.90
40123;DHT22;25832;45.490;4.912;2023-01-09T16:59:18;6.10;99.90
40123;DHT22;25832;45.490;4.912;2023-01-09T17:01:54;6.10;99.90
40123;DHT22;25832;45.490;4.912;2023-01-09T17:04:20;6.10;99.90
40123;DHT22;25832;45.490;4.912;2023-01-09T17:06:48;6.10;99.90
40123;DHT22;25832;45.490;4.912;2023-01-09T17:09:16;6.10;99.90
40123;DHT22;25832;45.490;4.912;2023-01-09T17:11:42;6.10;99.90
40123;DHT22;25832;45.490;4.912;2023-01-09T17:14:11;6.00;99.90
40123;DHT22;25832;45.490;4.912;2023-01-09T17:16:37;6.10;99.90
40123;DHT22;25832;45.490;4.912;2023-01-09T17:19:03;6.00;99.90
40123;DHT22;25832;45.490;4.912;2023-01-09T17:21:30;6.10;99.90
40123;DHT22;25832;45.490;4.912;2023-01-09T17:23:57;6.10;99.90
40123;DHT22;25832;45.490;4.912;2023-01-09T17:26:47;6.20;99.90
40123;DHT22;25832;45.490;4.912;2023-01-09T17:29:33;6.20;99.90
40123;DHT22;25832;45.490;4.912;2023-01-09T17:31:59;6.30;99.90
40123;DHT22;25832;45.490;4.912;2023-01-09T17:34:25;6.30;99.90
40123;DHT22;25832;45.490;4.912;2023-01-09T17:36:51;6.40;99.90
40123;DHT22;25832;45.490;4.912;2023-01-09T17:39:20;6.40;99.90
40123;DHT22;25832;45.490;4.912;2023-01-09T17:41:46;6.40;99.90
40123;DHT22;25832;45.490;4.912;2023-01-09T17:44:11;6.40;99.90
40123;DHT22;25832;45.490;4.912;2023-01-09T17:46:39;6.50;99.90
40123;DHT22;25832;45.490;4.912;2023-01-09T17:49:06;6.50;99.90
40123;DHT22;25832;45.490;4.912;2023-01-09T17:51:32;6.40;99.90
40123;DHT22;25832;45.490;4.912;2023-01-09T17:53:58;6.50;99.90
40123;DHT22;25832;45.490;4.912;2023-01-09T17:56:26;6.50;99.90
40123;DHT22;25832;45.490;4.912;2023-01-09T17:58:52;6.50;99.90
40123;DHT22;25832;45.490;4.912;2023-01-09T18:01:19;6.60;99.90
40123;DHT22;25832;45.490;4.912;2023-01-09T18:03:46;6.60;99.90
40123;DHT22;25832;45.490;4.912;2023-01-09T18:06:14;6.60;99.90
40123;DHT22;25832;45.490;4.912;2023-01-09T18:08:41;6.80;99.90
40123;DHT22;25832;45.490;4.912;2023-01-09T18:11:10;6.80;99.90
40123;DHT22;25832;45.490;4.912;2023-01-09T18:13:38;6.80;99.90
40123;DHT22;25832;45.490;4.912;2023-01-09T18:16:09;6.80;99.90
40123;DHT22;25832;45.490;4.912;2023-01-09T18:18:35;6.80;99.90
40123;DHT22;25832;45.490;4.912;2023-01-09T18:21:04;6.90;99.90
40123;DHT22;25832;45.490;4.912;2023-01-09T18:23:29;6.80;99.90
40123;DHT22;25832;45.490;4.912;2023-01-09T18:25:55;6.90;99.90
40123;DHT22;25832;45.490;4.912;2023-01-09T18:28:21;6.80;99.90
40123;DHT22;25832;45.490;4.912;2023-01-09T18:30:49;6.80;99.90
40123;DHT22;25832;45.490;4.912;2023-01-09T18:33:16;6.80;99.90
40123;DHT22;25832;45.490;4.912;2023-01-09T18:35:43;6.70;99.90
40123;DHT22;25832;45.490;4.912;2023-01-09T18:38:10;6.80;99.90
40123;DHT22;25832;45.490;4.912;2023-01-09T18:40:36;6.80;99.90
40123;DHT22;25832;45.490;4.912;2023-01-09T18:43:03;6.90;99.90